Lisbon, Portugal
Current Conditions -  °F | °C
As of 7:00 AM on Sunday 23 Nov 2014 (Local Time) from LPPT Reporting Station
Broken Clouds Broken Clouds  
Wind Chill: 59°   Ceiling: 800
Heat Index: 59°   Visibility: 6mi
Dew Point: 57°   Wind: 13mph
Humidity: 94%   Direction: 340°NNW
Pressure: 29.8"   Gusts: NA
Location:  38.72°N, 9.14°W
Report Text: LPPT 230700Z 34011KT 9999 BKN008 15/14 Q1009
Loading
Personal Weather Stations






























Interactive Weather Map New forecast layout! Learn more

10-Day Weather Forecast

Advertisements
Track Severe Weather on mobile